sensor_id;sensor_type;location;lat;lon;timestamp;pressure;altitude;pressure_sealevel;temperature;humidity
63694;BME280;49839;51.798;10.954;2022-07-29T00:00:00;99406.03;;;17.80;nan
63694;BME280;49839;51.798;10.954;2022-07-29T00:02:28;99406.16;;;17.78;nan
63694;BME280;49839;51.798;10.954;2022-07-29T00:04:56;99401.69;;;17.79;nan
63694;BME280;49839;51.798;10.954;2022-07-29T00:07:24;99403.59;;;17.77;nan
63694;BME280;49839;51.798;10.954;2022-07-29T00:09:52;99403.03;;;17.73;nan
63694;BME280;49839;51.798;10.954;2022-07-29T00:12:22;99386.31;;;17.71;nan
63694;BME280;49839;51.798;10.954;2022-07-29T00:14:52;99381.88;;;17.70;nan
63694;BME280;49839;51.798;10.954;2022-07-29T00:17:20;99379.47;;;17.67;nan
63694;BME280;49839;51.798;10.954;2022-07-29T00:19:48;99373.19;;;17.68;nan
63694;BME280;49839;51.798;10.954;2022-07-29T00:22:16;99377.66;;;17.68;nan
63694;BME280;49839;51.798;10.954;2022-07-29T00:24:43;99379.47;;;17.67;nan
63694;BME280;49839;51.798;10.954;2022-07-29T00:27:11;99374.88;;;17.69;nan
63694;BME280;49839;51.798;10.954;2022-07-29T00:29:40;99373.91;;;17.70;nan
63694;BME280;49839;51.798;10.954;2022-07-29T00:32:08;99368.69;;;17.69;nan
63694;BME280;49839;51.798;10.954;2022-07-29T00:34:35;99361.53;;;17.69;nan
63694;BME280;49839;51.798;10.954;2022-07-29T00:37:20;99360.56;;;17.70;nan
63694;BME280;49839;51.798;10.954;2022-07-29T00:39:48;99356.22;;;17.69;nan
63694;BME280;49839;51.798;10.954;2022-07-29T00:42:16;99353.41;;;17.71;nan
63694;BME280;49839;51.798;10.954;2022-07-29T00:44:45;99352.72;;;17.69;nan
63694;BME280;49839;51.798;10.954;2022-07-29T00:47:13;99348.34;;;17.68;nan
63694;BME280;49839;51.798;10.954;2022-07-29T00:49:41;99351.84;;;17.68;nan
63694;BME280;49839;51.798;10.954;2022-07-29T00:52:10;99347.63;;;17.66;nan
63694;BME280;49839;51.798;10.954;2022-07-29T00:54:39;99341.56;;;17.64;nan
63694;BME280;49839;51.798;10.954;2022-07-29T00:57:10;99341.47;;;17.65;nan
63694;BME280;49839;51.798;10.954;2022-07-29T00:59:38;99329.81;;;17.66;nan
63694;BME280;49839;51.798;10.954;2022-07-29T01:02:08;99333.47;;;17.65;nan
63694;BME280;49839;51.798;10.954;2022-07-29T01:04:35;99324.50;;;17.66;nan
63694;BME280;49839;51.798;10.954;2022-07-29T01:07:03;99321.84;;;17.66;nan
63694;BME280;49839;51.798;10.954;2022-07-29T01:09:32;99327.28;;;17.65;nan
63694;BME280;49839;51.798;10.954;2022-07-29T01:12:13;99323.66;;;17.66;nan
63694;BME280;49839;51.798;10.954;2022-07-29T01:14:42;99326.56;;;17.63;nan
63694;BME280;49839;51.798;10.954;2022-07-29T01:17:14;99317.84;;;17.60;nan
63694;BME280;49839;51.798;10.954;2022-07-29T01:19:52;99323.31;;;17.59;nan
63694;BME280;49839;51.798;10.954;2022-07-29T01:22:36;99317.97;;;17.59;nan
63694;BME280;49839;51.798;10.954;2022-07-29T01:25:32;99311.66;;;17.60;nan
63694;BME280;49839;51.798;10.954;2022-07-29T01:28:17;99308.16;;;17.59;nan
63694;BME280;49839;51.798;10.954;2022-07-29T01:30:51;99303.69;;;17.60;nan
63694;BME280;49839;51.798;10.954;2022-07-29T01:33:21;99307.31;;;17.59;nan
63694;BME280;49839;51.798;10.954;2022-07-29T01:36:11;99300.16;;;17.59;nan
63694;BME280;49839;51.798;10.954;2022-07-29T01:38:42;99298.22;;;17.62;nan
63694;BME280;49839;51.798;10.954;2022-07-29T01:41:15;99299.56;;;17.56;nan
63694;BME280;49839;51.798;10.954;2022-07-29T01:43:49;99302.47;;;17.53;nan
63694;BME280;49839;51.798;10.954;2022-07-29T01:46:25;99300.78;;;17.52;nan
63694;BME280;49839;51.798;10.954;2022-07-29T01:49:00;99299.56;;;17.56;nan
63694;BME280;49839;51.798;10.954;2022-07-29T01:51:31;99294.09;;;17.57;nan
63694;BME280;49839;51.798;10.954;2022-07-29T01:54:04;99287.56;;;17.62;nan
63694;BME280;49839;51.798;10.954;2022-07-29T01:56:35;99286.72;;;17.61;nan
63694;BME280;49839;51.798;10.954;2022-07-29T01:59:04;99288.75;;;17.57;nan
63694;BME280;49839;51.798;10.954;2022-07-29T02:01:35;99295.81;;;17.58;nan
63694;BME280;49839;51.798;10.954;2022-07-29T02:04:04;99278.84;;;17.59;nan
63694;BME280;49839;51.798;10.954;2022-07-29T02:06:37;99289.25;;;17.63;nan
63694;BME280;49839;51.798;10.954;2022-07-29T02:09:06;99283.91;;;17.63;nan
63694;BME280;49839;51.798;10.954;2022-07-29T02:11:35;99273.38;;;17.61;nan
63694;BME280;49839;51.798;10.954;2022-07-29T02:14:03;99270.97;;;17.58;nan
63694;BME280;49839;51.798;10.954;2022-07-29T02:16:34;99272.19;;;17.54;nan
63694;BME280;49839;51.798;10.954;2022-07-29T02:19:05;99262.63;;;17.51;nan
63694;BME280;49839;51.798;10.954;2022-07-29T02:21:35;99263.25;;;17.44;nan
63694;BME280;49839;51.798;10.954;2022-07-29T02:24:04;99260.34;;;17.36;nan
63694;BME280;49839;51.798;10.954;2022-07-29T02:26:33;99262.31;;;17.33;nan
63694;BME280;49839;51.798;10.954;2022-07-29T02:29:01;99262.66;;;17.29;nan
63694;BME280;49839;51.798;10.954;2022-07-29T02:31:33;99264.47;;;17.28;nan
63694;BME280;49839;51.798;10.954;2022-07-29T02:34:03;99267.38;;;17.25;nan
63694;BME280;49839;51.798;10.954;2022-07-29T02:36:33;99269.81;;;17.17;nan
63694;BME280;49839;51.798;10.954;2022-07-29T02:39:02;99271.13;;;17.12;nan
63694;BME280;49839;51.798;10.954;2022-07-29T02:44:15;99271.97;;;17.12;nan
63694;BME280;49839;51.798;10.954;2022-07-29T02:46:48;99272.13;;;17.11;nan
63694;BME280;49839;51.798;10.954;2022-07-29T02:49:24;99271.13;;;17.12;nan
63694;BME280;49839;51.798;10.954;2022-07-29T02:52:00;99269.31;;;17.12;nan
63694;BME280;49839;51.798;10.954;2022-07-29T02:54:31;99271.28;;;17.10;nan
63694;BME280;49839;51.798;10.954;2022-07-29T02:57:04;99269.59;;;17.09;nan
63694;BME280;49839;51.798;10.954;2022-07-29T02:59:36;99256.28;;;17.09;nan
63694;BME280;49839;51.798;10.954;2022-07-29T03:02:06;99263.41;;;17.09;nan
63694;BME280;49839;51.798;10.954;2022-07-29T03:04:37;99261.59;;;17.09;nan
63694;BME280;49839;51.798;10.954;2022-07-29T03:07:08;99262.31;;;17.11;nan
63694;BME280;49839;51.798;10.954;2022-07-29T03:09:38;99272.97;;;17.11;nan
63694;BME280;49839;51.798;10.954;2022-07-29T03:12:06;99268.97;;;17.05;nan
63694;BME280;49839;51.798;10.954;2022-07-29T03:14:35;99268.50;;;17.00;nan
63694;BME280;49839;51.798;10.954;2022-07-29T03:17:03;99266.91;;;16.98;nan
63694;BME280;49839;51.798;10.954;2022-07-29T03:19:32;99265.22;;;16.97;nan
63694;BME280;49839;51.798;10.954;2022-07-29T03:22:01;99260.75;;;16.97;nan
63694;BME280;49839;51.798;10.954;2022-07-29T03:24:33;99259.19;;;16.95;nan
63694;BME280;49839;51.798;10.954;2022-07-29T03:27:01;99260.63;;;16.99;nan
63694;BME280;49839;51.798;10.954;2022-07-29T03:29:29;99259.78;;;16.98;nan
63694;BME280;49839;51.798;10.954;2022-07-29T03:31:59;99250.09;;;16.97;nan
63694;BME280;49839;51.798;10.954;2022-07-29T03:34:28;99258.34;;;16.94;nan
63694;BME280;49839;51.798;10.954;2022-07-29T03:36:57;99254.34;;;16.89;nan
63694;BME280;49839;51.798;10.954;2022-07-29T03:39:27;99255.53;;;16.85;nan
63694;BME280;49839;51.798;10.954;2022-07-29T03:41:58;99254.06;;;16.81;nan
63694;BME280;49839;51.798;10.954;2022-07-29T03:44:27;99249.72;;;16.79;nan
63694;BME280;49839;51.798;10.954;2022-07-29T03:46:57;99250.94;;;16.75;nan
63694;BME280;49839;51.798;10.954;2022-07-29T03:49:29;99249.84;;;16.78;nan
63694;BME280;49839;51.798;10.954;2022-07-29T03:51:59;99245.25;;;16.80;nan
63694;BME280;49839;51.798;10.954;2022-07-29T03:54:27;99248.03;;;16.78;nan
63694;BME280;49839;51.798;10.954;2022-07-29T03:56:57;99248.75;;;16.81;nan
63694;BME280;49839;51.798;10.954;2022-07-29T03:59:26;99246.84;;;16.83;nan
63694;BME280;49839;51.798;10.954;2022-07-29T04:01:55;99242.22;;;16.85;nan
63694;BME280;49839;51.798;10.954;2022-07-29T04:04:24;99241.63;;;16.81;nan
63694;BME280;49839;51.798;10.954;2022-07-29T04:06:52;99232.91;;;16.79;nan
63694;BME280;49839;51.798;10.954;2022-07-29T04:09:21;99241.88;;;16.78;nan
63694;BME280;49839;51.798;10.954;2022-07-29T04:11:49;99238.34;;;16.77;nan
63694;BME280;49839;51.798;10.954;2022-07-29T04:14:28;99242.97;;;16.75;nan
63694;BME280;49839;51.798;10.954;2022-07-29T04:16:55;99250.81;;;16.77;nan
63694;BME280;49839;51.798;10.954;2022-07-29T04:19:23;99244.66;;;16.76;nan
63694;BME280;49839;51.798;10.954;2022-07-29T04:21:51;99241.88;;;16.78;nan
63694;BME280;49839;51.798;10.954;2022-07-29T04:24:18;99250.69;;;16.78;nan
63694;BME280;49839;51.798;10.954;2022-07-29T04:26:48;99239.56;;;16.85;nan
63694;BME280;49839;51.798;10.954;2022-07-29T04:29:16;99251.53;;;16.90;nan
63694;BME280;49839;51.798;10.954;2022-07-29T04:31:44;99250.34;;;16.94;nan
63694;BME280;49839;51.798;10.954;2022-07-29T04:34:12;99249.88;;;17.00;nan
63694;BME280;49839;51.798;10.954;2022-07-29T04:36:40;99256.13;;;16.99;nan
63694;BME280;49839;51.798;10.954;2022-07-29T04:39:08;99261.09;;;17.04;nan
63694;BME280;49839;51.798;10.954;2022-07-29T04:41:36;99257.13;;;17.10;nan
63694;BME280;49839;51.798;10.954;2022-07-29T04:44:05;99255.16;;;17.12;nan
63694;BME280;49839;51.798;10.954;2022-07-29T04:46:34;99245.00;;;17.05;nan
63694;BME280;49839;51.798;10.954;2022-07-29T04:49:03;99251.16;;;17.06;nan
63694;BME280;49839;51.798;10.954;2022-07-29T04:51:30;99253.47;;;17.11;nan
63694;BME280;49839;51.798;10.954;2022-07-29T04:53:58;99253.13;;;17.15;nan
63694;BME280;49839;51.798;10.954;2022-07-29T04:56:26;99255.06;;;17.13;nan
63694;BME280;49839;51.798;10.954;2022-07-29T04:58:53;99246.94;;;17.15;nan
63694;BME280;49839;51.798;10.954;2022-07-29T05:01:22;99242.97;;;17.20;nan
63694;BME280;49839;51.798;10.954;2022-07-29T05:03:50;99243.31;;;17.27;nan
63694;BME280;49839;51.798;10.954;2022-07-29T05:06:22;99236.41;;;17.24;nan
63694;BME280;49839;51.798;10.954;2022-07-29T05:08:50;99232.75;;;17.25;nan
63694;BME280;49839;51.798;10.954;2022-07-29T05:11:17;99230.47;;;17.21;nan
63694;BME280;49839;51.798;10.954;2022-07-29T05:13:47;99230.34;;;17.22;nan
63694;BME280;49839;51.798;10.954;2022-07-29T05:16:15;99235.19;;;17.17;nan
63694;BME280;49839;51.798;10.954;2022-07-29T05:18:44;99229.38;;;17.12;nan
63694;BME280;49839;51.798;10.954;2022-07-29T05:21:12;99230.63;;;17.08;nan
63694;BME280;49839;51.798;10.954;2022-07-29T05:23:39;99243.66;;;17.11;nan
63694;BME280;49839;51.798;10.954;2022-07-29T05:26:07;99239.09;;;17.13;nan
63694;BME280;49839;51.798;10.954;2022-07-29T05:28:34;99235.06;;;17.19;nan
63694;BME280;49839;51.798;10.954;2022-07-29T05:31:02;99243.66;;;17.22;nan
63694;BME280;49839;51.798;10.954;2022-07-29T05:33:30;99240.03;;;17.23;nan
63694;BME280;49839;51.798;10.954;2022-07-29T05:36:03;99238.69;;;17.29;nan
63694;BME280;49839;51.798;10.954;2022-07-29T05:38:33;99233.72;;;17.36;nan
63694;BME280;49839;51.798;10.954;2022-07-29T05:41:01;99233.97;;;17.32;nan
63694;BME280;49839;51.798;10.954;2022-07-29T05:43:29;99233.47;;;17.39;nan
63694;BME280;49839;51.798;10.954;2022-07-29T05:45:57;99253.31;;;17.46;nan
63694;BME280;49839;51.798;10.954;2022-07-29T05:48:25;99252.44;;;17.56;nan
63694;BME280;49839;51.798;10.954;2022-07-29T05:50:53;99252.78;;;17.63;nan
63694;BME280;49839;51.798;10.954;2022-07-29T05:53:22;99253.97;;;17.70;nan
63694;BME280;49839;51.798;10.954;2022-07-29T05:55:50;99242.00;;;17.76;nan
63694;BME280;49839;51.798;10.954;2022-07-29T05:58:18;99237.47;;;17.88;nan
63694;BME280;49839;51.798;10.954;2022-07-29T06:00:46;99246.63;;;18.06;nan
63694;BME280;49839;51.798;10.954;2022-07-29T06:03:14;99237.72;;;18.17;nan
63694;BME280;49839;51.798;10.954;2022-07-29T06:05:42;99239.75;;;18.24;nan
63694;BME280;49839;51.798;10.954;2022-07-29T06:08:09;99238.69;;;18.36;nan
63694;BME280;49839;51.798;10.954;2022-07-29T06:10:38;99240.00;;;18.42;nan
63694;BME280;49839;51.798;10.954;2022-07-29T06:13:06;99242.41;;;18.45;nan
63694;BME280;49839;51.798;10.954;2022-07-29T06:15:33;99236.69;;;18.50;nan
63694;BME280;49839;51.798;10.954;2022-07-29T06:18:01;99239.72;;;18.45;nan
63694;BME280;49839;51.798;10.954;2022-07-29T06:20:30;99227.94;;;18.48;nan
63694;BME280;49839;51.798;10.954;2022-07-29T06:22:59;99235.56;;;18.52;nan
63694;BME280;49839;51.798;10.954;2022-07-29T06:25:27;99236.84;;;18.58;nan
63694;BME280;49839;51.798;10.954;2022-07-29T06:27:57;99240.34;;;18.70;nan
63694;BME280;49839;51.798;10.954;2022-07-29T06:30:24;99229.97;;;19.07;nan
63694;BME280;49839;51.798;10.954;2022-07-29T06:32:52;99227.00;;;19.10;nan
63694;BME280;49839;51.798;10.954;2022-07-29T06:35:21;99237.06;;;19.27;nan
63694;BME280;49839;51.798;10.954;2022-07-29T06:38:07;99229.50;;;19.32;nan
63694;BME280;49839;51.798;10.954;2022-07-29T06:40:55;99236.66;;;19.51;nan
63694;BME280;49839;51.798;10.954;2022-07-29T06:43:32;99238.84;;;19.67;nan
63694;BME280;49839;51.798;10.954;2022-07-29T06:46:03;99239.84;;;19.75;nan
63694;BME280;49839;51.798;10.954;2022-07-29T06:48:32;99238.31;;;19.92;nan
63694;BME280;49839;51.798;10.954;2022-07-29T06:51:00;99236.19;;;20.06;nan
63694;BME280;49839;51.798;10.954;2022-07-29T06:53:28;99236.03;;;20.36;nan
63694;BME280;49839;51.798;10.954;2022-07-29T06:55:57;99240.81;;;20.42;nan
63694;BME280;49839;51.798;10.954;2022-07-29T06:58:25;99239.56;;;20.37;nan
63694;BME280;49839;51.798;10.954;2022-07-29T07:00:55;99232.38;;;20.57;nan
63694;BME280;49839;51.798;10.954;2022-07-29T07:03:23;99232.53;;;20.92;nan
63694;BME280;49839;51.798;10.954;2022-07-29T07:05:52;99235.41;;;21.46;nan
63694;BME280;49839;51.798;10.954;2022-07-29T07:08:20;99238.22;;;21.72;nan
63694;BME280;49839;51.798;10.954;2022-07-29T07:10:49;99233.44;;;21.66;nan
63694;BME280;49839;51.798;10.954;2022-07-29T07:13:16;99238.50;;;21.69;nan
63694;BME280;49839;51.798;10.954;2022-07-29T07:15:44;99239.88;;;21.73;nan
63694;BME280;49839;51.798;10.954;2022-07-29T07:18:15;99235.66;;;21.88;nan
63694;BME280;49839;51.798;10.954;2022-07-29T07:20:43;99234.84;;;22.05;nan
63694;BME280;49839;51.798;10.954;2022-07-29T07:23:11;99228.88;;;22.55;nan
63694;BME280;49839;51.798;10.954;2022-07-29T07:25:38;99231.97;;;23.29;nan
63694;BME280;49839;51.798;10.954;2022-07-29T07:28:06;99234.31;;;23.66;nan
63694;BME280;49839;51.798;10.954;2022-07-29T07:30:34;99225.84;;;23.61;nan
63694;BME280;49839;51.798;10.954;2022-07-29T07:33:02;99233.47;;;23.73;nan
63694;BME280;49839;51.798;10.954;2022-07-29T07:35:31;99230.25;;;23.62;nan
63694;BME280;49839;51.798;10.954;2022-07-29T07:37:59;99229.09;;;23.64;nan
63694;BME280;49839;51.798;10.954;2022-07-29T07:40:26;99236.38;;;23.38;nan
63694;BME280;49839;51.798;10.954;2022-07-29T07:42:54;99230.47;;;23.26;nan
63694;BME280;49839;51.798;10.954;2022-07-29T07:45:22;99226.97;;;23.34;nan
63694;BME280;49839;51.798;10.954;2022-07-29T07:47:50;99230.34;;;23.44;nan
63694;BME280;49839;51.798;10.954;2022-07-29T07:50:17;99225.22;;;23.67;nan
63694;BME280;49839;51.798;10.954;2022-07-29T07:52:47;99230.63;;;23.67;nan
63694;BME280;49839;51.798;10.954;2022-07-29T07:55:16;99228.28;;;23.72;nan
63694;BME280;49839;51.798;10.954;2022-07-29T07:57:44;99219.31;;;23.63;nan
63694;BME280;49839;51.798;10.954;2022-07-29T08:00:13;99228.34;;;23.46;nan
63694;BME280;49839;51.798;10.954;2022-07-29T08:02:42;99228.09;;;23.65;nan
63694;BME280;49839;51.798;10.954;2022-07-29T08:05:12;99225.06;;;23.68;nan
63694;BME280;49839;51.798;10.954;2022-07-29T08:07:44;99226.44;;;23.81;nan
63694;BME280;49839;51.798;10.954;2022-07-29T08:10:14;99233.03;;;24.02;nan
63694;BME280;49839;51.798;10.954;2022-07-29T08:12:41;99224.63;;;24.30;nan
63694;BME280;49839;51.798;10.954;2022-07-29T08:15:09;99225.59;;;24.70;nan
63694;BME280;49839;51.798;10.954;2022-07-29T08:17:37;99224.06;;;24.83;nan
63694;BME280;49839;51.798;10.954;2022-07-29T08:20:05;99225.72;;;24.84;nan
63694;BME280;49839;51.798;10.954;2022-07-29T08:22:33;99220.13;;;25.02;nan
63694;BME280;49839;51.798;10.954;2022-07-29T08:25:00;99231.88;;;25.18;nan
63694;BME280;49839;51.798;10.954;2022-07-29T08:27:29;99226.94;;;25.29;nan
63694;BME280;49839;51.798;10.954;2022-07-29T08:30:09;99230.09;;;25.41;nan
63694;BME280;49839;51.798;10.954;2022-07-29T08:32:37;99218.56;;;25.55;nan
63694;BME280;49839;51.798;10.954;2022-07-29T08:35:21;99229.13;;;25.65;nan
63694;BME280;49839;51.798;10.954;2022-07-29T08:37:50;99222.50;;;25.76;nan
63694;BME280;49839;51.798;10.954;2022-07-29T08:40:18;99227.31;;;25.88;nan
63694;BME280;49839;51.798;10.954;2022-07-29T08:42:48;99221.69;;;25.98;nan
63694;BME280;49839;51.798;10.954;2022-07-29T08:45:16;99224.19;;;26.00;nan
63694;BME280;49839;51.798;10.954;2022-07-29T08:47:44;99226.38;;;26.04;nan
63694;BME280;49839;51.798;10.954;2022-07-29T08:50:12;99222.69;;;25.74;nan
63694;BME280;49839;51.798;10.954;2022-07-29T08:52:41;99225.34;;;25.43;nan
63694;BME280;49839;51.798;10.954;2022-07-29T08:55:09;99227.13;;;25.28;nan
63694;BME280;49839;51.798;10.954;2022-07-29T08:57:38;99230.56;;;25.53;nan
63694;BME280;49839;51.798;10.954;2022-07-29T09:00:10;99229.22;;;25.49;nan
63694;BME280;49839;51.798;10.954;2022-07-29T09:02:40;99220.34;;;25.71;nan
63694;BME280;49839;51.798;10.954;2022-07-29T09:05:09;99222.53;;;25.99;nan
63694;BME280;49839;51.798;10.954;2022-07-29T09:07:38;99217.97;;;26.60;nan
63694;BME280;49839;51.798;10.954;2022-07-29T09:10:07;99217.13;;;27.04;nan
63694;BME280;49839;51.798;10.954;2022-07-29T09:12:34;99212.69;;;27.76;nan
63694;BME280;49839;51.798;10.954;2022-07-29T09:15:04;99216.19;;;27.92;nan
63694;BME280;49839;51.798;10.954;2022-07-29T09:17:43;99217.59;;;27.51;nan
63694;BME280;49839;51.798;10.954;2022-07-29T09:20:12;99212.50;;;27.27;nan
63694;BME280;49839;51.798;10.954;2022-07-29T09:22:40;99208.78;;;26.98;nan
63694;BME280;49839;51.798;10.954;2022-07-29T09:25:10;99204.03;;;26.86;nan
63694;BME280;49839;51.798;10.954;2022-07-29T09:27:39;99200.56;;;26.77;nan
63694;BME280;49839;51.798;10.954;2022-07-29T09:30:08;99205.31;;;26.90;nan
63694;BME280;49839;51.798;10.954;2022-07-29T09:32:57;99202.78;;;26.88;nan
63694;BME280;49839;51.798;10.954;2022-07-29T09:35:28;99199.22;;;27.47;nan
63694;BME280;49839;51.798;10.954;2022-07-29T09:37:56;99195.53;;;28.33;nan
63694;BME280;49839;51.798;10.954;2022-07-29T09:40:25;99196.41;;;28.69;nan
63694;BME280;49839;51.798;10.954;2022-07-29T09:42:54;99195.72;;;28.88;nan
63694;BME280;49839;51.798;10.954;2022-07-29T09:45:28;99190.91;;;28.90;nan
63694;BME280;49839;51.798;10.954;2022-07-29T09:47:58;99198.69;;;28.65;nan
63694;BME280;49839;51.798;10.954;2022-07-29T09:50:37;99192.72;;;28.76;nan
63694;BME280;49839;51.798;10.954;2022-07-29T09:53:05;99190.41;;;28.73;nan
63694;BME280;49839;51.798;10.954;2022-07-29T09:55:45;99181.59;;;29.47;nan
63694;BME280;49839;51.798;10.954;2022-07-29T09:58:17;99187.03;;;29.47;nan
63694;BME280;49839;51.798;10.954;2022-07-29T10:00:46;99185.97;;;29.41;nan
63694;BME280;49839;51.798;10.954;2022-07-29T10:03:16;99186.72;;;29.70;nan
63694;BME280;49839;51.798;10.954;2022-07-29T10:05:45;99180.47;;;29.76;nan
63694;BME280;49839;51.798;10.954;2022-07-29T10:08:13;99176.50;;;29.85;nan
63694;BME280;49839;51.798;10.954;2022-07-29T10:10:42;99176.94;;;29.89;nan
63694;BME280;49839;51.798;10.954;2022-07-29T10:13:11;99179.41;;;29.71;nan
63694;BME280;49839;51.798;10.954;2022-07-29T10:15:43;99172.81;;;29.45;nan
63694;BME280;49839;51.798;10.954;2022-07-29T10:18:13;99170.84;;;29.19;nan
63694;BME280;49839;51.798;10.954;2022-07-29T10:20:45;99167.00;;;29.00;nan
63694;BME280;49839;51.798;10.954;2022-07-29T10:23:13;99164.00;;;28.88;nan
63694;BME280;49839;51.798;10.954;2022-07-29T10:25:40;99160.34;;;28.68;nan
63694;BME280;49839;51.798;10.954;2022-07-29T10:28:11;99160.81;;;28.44;nan
63694;BME280;49839;51.798;10.954;2022-07-29T10:30:42;99162.88;;;28.20;nan
63694;BME280;49839;51.798;10.954;2022-07-29T10:33:21;99164.81;;;27.77;nan
63694;BME280;49839;51.798;10.954;2022-07-29T10:36:15;99165.91;;;27.68;nan
63694;BME280;49839;51.798;10.954;2022-07-29T10:38:51;99160.84;;;27.43;nan
63694;BME280;49839;51.798;10.954;2022-07-29T10:44:14;99162.88;;;27.20;nan
63694;BME280;49839;51.798;10.954;2022-07-29T10:46:45;99155.28;;;27.30;nan
63694;BME280;49839;51.798;10.954;2022-07-29T10:49:14;99157.16;;;27.30;nan
63694;BME280;49839;51.798;10.954;2022-07-29T10:52:01;99152.03;;;27.35;nan
63694;BME280;49839;51.798;10.954;2022-07-29T10:54:38;99151.53;;;27.46;nan
63694;BME280;49839;51.798;10.954;2022-07-29T10:57:16;99149.72;;;27.32;nan
63694;BME280;49839;51.798;10.954;2022-07-29T10:59:44;99144.59;;;27.22;nan
63694;BME280;49839;51.798;10.954;2022-07-29T11:02:40;99153.59;;;27.44;nan
63694;BME280;49839;51.798;10.954;2022-07-29T11:05:11;99156.44;;;27.57;nan
63694;BME280;49839;51.798;10.954;2022-07-29T11:08:20;99138.94;;;27.74;nan
63694;BME280;49839;51.798;10.954;2022-07-29T11:11:31;99142.22;;;27.91;nan
63694;BME280;49839;51.798;10.954;2022-07-29T11:13:59;99137.50;;;28.00;nan
63694;BME280;49839;51.798;10.954;2022-07-29T11:17:00;99132.94;;;27.58;nan
63694;BME280;49839;51.798;10.954;2022-07-29T11:19:28;99132.66;;;27.52;nan
63694;BME280;49839;51.798;10.954;2022-07-29T11:21:57;99140.78;;;27.52;nan
63694;BME280;49839;51.798;10.954;2022-07-29T11:24:28;99135.63;;;27.58;nan
63694;BME280;49839;51.798;10.954;2022-07-29T11:27:07;99135.72;;;27.49;nan
63694;BME280;49839;51.798;10.954;2022-07-29T11:29:38;99138.13;;;27.59;nan
63694;BME280;49839;51.798;10.954;2022-07-29T11:32:11;99136.06;;;27.61;nan
63694;BME280;49839;51.798;10.954;2022-07-29T11:34:41;99136.19;;;27.53;nan
63694;BME280;49839;51.798;10.954;2022-07-29T11:37:17;99135.50;;;27.66;nan
63694;BME280;49839;51.798;10.954;2022-07-29T11:40:15;99131.81;;;27.52;nan
63694;BME280;49839;51.798;10.954;2022-07-29T11:43:03;99133.81;;;27.65;nan
63694;BME280;49839;51.798;10.954;2022-07-29T11:45:51;99132.38;;;27.84;nan
63694;BME280;49839;51.798;10.954;2022-07-29T11:48:19;99129.94;;;27.89;nan
63694;BME280;49839;51.798;10.954;2022-07-29T11:50:56;99133.75;;;27.58;nan
63694;BME280;49839;51.798;10.954;2022-07-29T11:53:24;99128.50;;;27.35;nan
63694;BME280;49839;51.798;10.954;2022-07-29T11:56:16;99122.66;;;27.32;nan
63694;BME280;49839;51.798;10.954;2022-07-29T11:58:48;99129.03;;;27.45;nan
63694;BME280;49839;51.798;10.954;2022-07-29T12:01:17;99123.94;;;27.36;nan
63694;BME280;49839;51.798;10.954;2022-07-29T12:03:45;99123.78;;;27.22;nan
63694;BME280;49839;51.798;10.954;2022-07-29T12:06:14;99122.38;;;27.26;nan
63694;BME280;49839;51.798;10.954;2022-07-29T12:08:44;99121.81;;;27.31;nan
63694;BME280;49839;51.798;10.954;2022-07-29T12:11:18;99122.94;;;27.22;nan
63694;BME280;49839;51.798;10.954;2022-07-29T12:13:48;99125.84;;;27.20;nan
63694;BME280;49839;51.798;10.954;2022-07-29T12:16:16;99121.75;;;27.24;nan
63694;BME280;49839;51.798;10.954;2022-07-29T12:18:55;99119.13;;;27.31;nan
63694;BME280;49839;51.798;10.954;2022-07-29T12:21:23;99128.31;;;27.37;nan
63694;BME280;49839;51.798;10.954;2022-07-29T12:23:52;99125.53;;;27.30;nan
63694;BME280;49839;51.798;10.954;2022-07-29T12:26:22;99125.50;;;27.45;nan
63694;BME280;49839;51.798;10.954;2022-07-29T12:28:51;99125.56;;;27.51;nan
63694;BME280;49839;51.798;10.954;2022-07-29T12:31:23;99112.94;;;27.59;nan
63694;BME280;49839;51.798;10.954;2022-07-29T12:34:07;99111.38;;;27.49;nan
63694;BME280;49839;51.798;10.954;2022-07-29T12:36:35;99119.19;;;27.38;nan
63694;BME280;49839;51.798;10.954;2022-07-29T12:39:03;99122.88;;;27.51;nan
63694;BME280;49839;51.798;10.954;2022-07-29T12:41:32;99117.06;;;27.54;nan
63694;BME280;49839;51.798;10.954;2022-07-29T12:44:01;99102.94;;;27.59;nan
63694;BME280;49839;51.798;10.954;2022-07-29T12:46:28;99111.13;;;27.66;nan
63694;BME280;49839;51.798;10.954;2022-07-29T12:48:56;99102.34;;;27.78;nan
63694;BME280;49839;51.798;10.954;2022-07-29T12:51:28;99101.03;;;27.74;nan
63694;BME280;49839;51.798;10.954;2022-07-29T12:54:05;99097.69;;;27.72;nan
63694;BME280;49839;51.798;10.954;2022-07-29T12:56:36;99092.06;;;27.52;nan
63694;BME280;49839;51.798;10.954;2022-07-29T12:59:13;99089.00;;;27.62;nan
63694;BME280;49839;51.798;10.954;2022-07-29T13:01:42;99095.09;;;27.86;nan
63694;BME280;49839;51.798;10.954;2022-07-29T13:04:10;99100.31;;;27.87;nan
63694;BME280;49839;51.798;10.954;2022-07-29T13:06:39;99098.53;;;28.01;nan
63694;BME280;49839;51.798;10.954;2022-07-29T13:09:11;99091.91;;;28.03;nan
63694;BME280;49839;51.798;10.954;2022-07-29T13:11:46;99079.16;;;27.97;nan
63694;BME280;49839;51.798;10.954;2022-07-29T13:14:31;99073.53;;;27.99;nan
63694;BME280;49839;51.798;10.954;2022-07-29T13:17:01;99089.84;;;28.05;nan
63694;BME280;49839;51.798;10.954;2022-07-29T13:19:38;99082.22;;;28.16;nan
63694;BME280;49839;51.798;10.954;2022-07-29T13:22:08;99073.50;;;28.27;nan
63694;BME280;49839;51.798;10.954;2022-07-29T13:24:48;99074.16;;;28.29;nan
63694;BME280;49839;51.798;10.954;2022-07-29T13:27:19;99067.19;;;28.41;nan
63694;BME280;49839;51.798;10.954;2022-07-29T13:29:47;99070.50;;;28.37;nan
63694;BME280;49839;51.798;10.954;2022-07-29T13:32:17;99069.75;;;28.21;nan
63694;BME280;49839;51.798;10.954;2022-07-29T13:34:45;99059.66;;;28.09;nan